sensor_id;sensor_type;location;lat;lon;timestamp;P1;durP1;ratioP1;P2;durP2;ratioP2
48040;SDS011;33815;48.386;11.738;2023-07-30T00:01:05;4.90;;;3.67;;
48040;SDS011;33815;48.386;11.738;2023-07-30T00:03:30;4.27;;;3.80;;
48040;SDS011;33815;48.386;11.738;2023-07-30T00:05:55;7.43;;;3.72;;
48040;SDS011;33815;48.386;11.738;2023-07-30T00:08:21;6.60;;;3.78;;
48040;SDS011;33815;48.386;11.738;2023-07-30T00:10:46;4.30;;;3.90;;
48040;SDS011;33815;48.386;11.738;2023-07-30T00:13:12;4.13;;;3.55;;
48040;SDS011;33815;48.386;11.738;2023-07-30T00:15:37;5.90;;;3.72;;
48040;SDS011;33815;48.386;11.738;2023-07-30T00:18:02;4.23;;;3.30;;
48040;SDS011;33815;48.386;11.738;2023-07-30T00:20:27;4.83;;;2.77;;
48040;SDS011;33815;48.386;11.738;2023-07-30T00:22:53;7.20;;;3.10;;
48040;SDS011;33815;48.386;11.738;2023-07-30T00:25:18;4.03;;;3.23;;
48040;SDS011;33815;48.386;11.738;2023-07-30T00:27:43;5.33;;;2.87;;
48040;SDS011;33815;48.386;11.738;2023-07-30T00:30:09;3.07;;;2.87;;
48040;SDS011;33815;48.386;11.738;2023-07-30T00:32:34;3.85;;;3.00;;
48040;SDS011;33815;48.386;11.738;2023-07-30T00:35:00;3.43;;;3.13;;
48040;SDS011;33815;48.386;11.738;2023-07-30T00:37:25;4.50;;;3.10;;
48040;SDS011;33815;48.386;11.738;2023-07-30T00:39:50;5.50;;;2.67;;
48040;SDS011;33815;48.386;11.738;2023-07-30T00:42:15;3.80;;;3.15;;
48040;SDS011;33815;48.386;11.738;2023-07-30T00:44:41;3.20;;;2.90;;
48040;SDS011;33815;48.386;11.738;2023-07-30T00:47:06;3.33;;;2.60;;
48040;SDS011;33815;48.386;11.738;2023-07-30T00:49:32;3.83;;;2.75;;
48040;SDS011;33815;48.386;11.738;2023-07-30T00:51:57;4.28;;;3.13;;
48040;SDS011;33815;48.386;11.738;2023-07-30T00:54:24;2.95;;;2.38;;
48040;SDS011;33815;48.386;11.738;2023-07-30T00:56:50;2.92;;;2.63;;
48040;SDS011;33815;48.386;11.738;2023-07-30T00:59:18;3.55;;;2.42;;
48040;SDS011;33815;48.386;11.738;2023-07-30T01:01:45;5.68;;;2.55;;
48040;SDS011;33815;48.386;11.738;2023-07-30T01:04:12;4.78;;;2.38;;
48040;SDS011;33815;48.386;11.738;2023-07-30T01:06:41;2.47;;;2.13;;
48040;SDS011;33815;48.386;11.738;2023-07-30T01:09:07;3.30;;;2.72;;
48040;SDS011;33815;48.386;11.738;2023-07-30T01:11:33;2.45;;;2.15;;
48040;SDS011;33815;48.386;11.738;2023-07-30T01:13:59;2.55;;;2.33;;
48040;SDS011;33815;48.386;11.738;2023-07-30T01:16:25;3.58;;;2.45;;
48040;SDS011;33815;48.386;11.738;2023-07-30T01:18:50;2.60;;;2.40;;
48040;SDS011;33815;48.386;11.738;2023-07-30T01:21:16;2.70;;;2.45;;
48040;SDS011;33815;48.386;11.738;2023-07-30T01:23:41;2.42;;;2.22;;
48040;SDS011;33815;48.386;11.738;2023-07-30T01:26:15;4.03;;;2.20;;
48040;SDS011;33815;48.386;11.738;2023-07-30T01:28:48;3.55;;;2.72;;
48040;SDS011;33815;48.386;11.738;2023-07-30T01:31:16;2.55;;;2.35;;
48040;SDS011;33815;48.386;11.738;2023-07-30T01:33:43;4.30;;;2.50;;
48040;SDS011;33815;48.386;11.738;2023-07-30T01:36:13;2.50;;;2.25;;
48040;SDS011;33815;48.386;11.738;2023-07-30T01:38:40;3.00;;;2.35;;
48040;SDS011;33815;48.386;11.738;2023-07-30T01:41:07;2.40;;;2.15;;
48040;SDS011;33815;48.386;11.738;2023-07-30T01:43:32;4.70;;;2.40;;
48040;SDS011;33815;48.386;11.738;2023-07-30T01:45:57;2.83;;;2.47;;
48040;SDS011;33815;48.386;11.738;2023-07-30T01:48:22;3.67;;;2.67;;
48040;SDS011;33815;48.386;11.738;2023-07-30T01:50:48;3.60;;;2.45;;
48040;SDS011;33815;48.386;11.738;2023-07-30T01:53:13;4.30;;;2.70;;
48040;SDS011;33815;48.386;11.738;2023-07-30T01:55:39;3.65;;;2.67;;
48040;SDS011;33815;48.386;11.738;2023-07-30T01:58:08;8.55;;;2.60;;
48040;SDS011;33815;48.386;11.738;2023-07-30T02:00:34;2.53;;;2.33;;
48040;SDS011;33815;48.386;11.738;2023-07-30T02:03:01;3.78;;;2.60;;
48040;SDS011;33815;48.386;11.738;2023-07-30T02:05:26;2.40;;;2.20;;
48040;SDS011;33815;48.386;11.738;2023-07-30T02:07:51;2.80;;;2.57;;
48040;SDS011;33815;48.386;11.738;2023-07-30T02:10:17;3.28;;;2.40;;
48040;SDS011;33815;48.386;11.738;2023-07-30T02:12:42;2.63;;;2.33;;
48040;SDS011;33815;48.386;11.738;2023-07-30T02:15:07;5.30;;;2.53;;
48040;SDS011;33815;48.386;11.738;2023-07-30T02:17:33;3.33;;;2.47;;
48040;SDS011;33815;48.386;11.738;2023-07-30T02:19:58;4.33;;;2.93;;
48040;SDS011;33815;48.386;11.738;2023-07-30T02:22:23;2.37;;;2.17;;
48040;SDS011;33815;48.386;11.738;2023-07-30T02:24:48;2.70;;;2.50;;
48040;SDS011;33815;48.386;11.738;2023-07-30T02:27:14;2.55;;;2.35;;
48040;SDS011;33815;48.386;11.738;2023-07-30T02:29:39;3.65;;;2.40;;
48040;SDS011;33815;48.386;11.738;2023-07-30T02:32:05;2.58;;;2.35;;
48040;SDS011;33815;48.386;11.738;2023-07-30T02:34:31;4.97;;;2.67;;
48040;SDS011;33815;48.386;11.738;2023-07-30T02:36:56;4.57;;;2.50;;
48040;SDS011;33815;48.386;11.738;2023-07-30T02:39:21;3.87;;;2.70;;
48040;SDS011;33815;48.386;11.738;2023-07-30T02:41:46;2.75;;;2.45;;
48040;SDS011;33815;48.386;11.738;2023-07-30T02:44:12;3.10;;;2.72;;
48040;SDS011;33815;48.386;11.738;2023-07-30T02:46:37;2.95;;;2.25;;
48040;SDS011;33815;48.386;11.738;2023-07-30T02:49:02;3.10;;;2.15;;
48040;SDS011;33815;48.386;11.738;2023-07-30T02:51:27;3.03;;;2.30;;
48040;SDS011;33815;48.386;11.738;2023-07-30T02:53:55;3.85;;;2.70;;
48040;SDS011;33815;48.386;11.738;2023-07-30T02:56:23;2.60;;;2.20;;
48040;SDS011;33815;48.386;11.738;2023-07-30T02:58:48;3.22;;;2.60;;
48040;SDS011;33815;48.386;11.738;2023-07-30T03:01:13;3.47;;;2.77;;
48040;SDS011;33815;48.386;11.738;2023-07-30T03:03:39;4.55;;;2.47;;
48040;SDS011;33815;48.386;11.738;2023-07-30T03:06:04;3.10;;;2.67;;
48040;SDS011;33815;48.386;11.738;2023-07-30T03:08:29;3.53;;;2.67;;
48040;SDS011;33815;48.386;11.738;2023-07-30T03:10:57;3.20;;;2.88;;
48040;SDS011;33815;48.386;11.738;2023-07-30T03:13:23;5.78;;;2.70;;
48040;SDS011;33815;48.386;11.738;2023-07-30T03:15:48;9.57;;;2.17;;
48040;SDS011;33815;48.386;11.738;2023-07-30T03:18:13;5.40;;;2.97;;
48040;SDS011;33815;48.386;11.738;2023-07-30T03:20:39;3.80;;;2.53;;
48040;SDS011;33815;48.386;11.738;2023-07-30T03:23:04;3.70;;;2.63;;
48040;SDS011;33815;48.386;11.738;2023-07-30T03:25:29;4.93;;;2.90;;
48040;SDS011;33815;48.386;11.738;2023-07-30T03:27:54;2.50;;;2.30;;
48040;SDS011;33815;48.386;11.738;2023-07-30T03:30:20;3.87;;;2.63;;
48040;SDS011;33815;48.386;11.738;2023-07-30T03:32:45;5.40;;;2.87;;
48040;SDS011;33815;48.386;11.738;2023-07-30T03:35:10;4.15;;;2.63;;
48040;SDS011;33815;48.386;11.738;2023-07-30T03:37:36;3.63;;;2.90;;
48040;SDS011;33815;48.386;11.738;2023-07-30T03:40:01;2.33;;;2.13;;
48040;SDS011;33815;48.386;11.738;2023-07-30T03:42:26;2.78;;;2.55;;
48040;SDS011;33815;48.386;11.738;2023-07-30T03:44:51;3.27;;;2.73;;
48040;SDS011;33815;48.386;11.738;2023-07-30T03:47:17;2.63;;;2.43;;
48040;SDS011;33815;48.386;11.738;2023-07-30T03:49:42;2.40;;;2.20;;
48040;SDS011;33815;48.386;11.738;2023-07-30T03:52:07;3.10;;;2.70;;
48040;SDS011;33815;48.386;11.738;2023-07-30T03:54:32;7.40;;;2.80;;
48040;SDS011;33815;48.386;11.738;2023-07-30T03:56:58;2.65;;;2.35;;
48040;SDS011;33815;48.386;11.738;2023-07-30T03:59:23;6.73;;;2.30;;
48040;SDS011;33815;48.386;11.738;2023-07-30T04:01:48;2.58;;;2.38;;
48040;SDS011;33815;48.386;11.738;2023-07-30T04:04:14;5.63;;;3.05;;
48040;SDS011;33815;48.386;11.738;2023-07-30T04:06:39;2.70;;;2.37;;
48040;SDS011;33815;48.386;11.738;2023-07-30T04:09:04;3.37;;;2.60;;
48040;SDS011;33815;48.386;11.738;2023-07-30T04:11:30;7.05;;;4.32;;
48040;SDS011;33815;48.386;11.738;2023-07-30T04:13:55;3.33;;;2.80;;
48040;SDS011;33815;48.386;11.738;2023-07-30T04:16:20;3.40;;;2.67;;
48040;SDS011;33815;48.386;11.738;2023-07-30T04:18:45;3.30;;;3.00;;
48040;SDS011;33815;48.386;11.738;2023-07-30T04:21:11;4.27;;;2.43;;
48040;SDS011;33815;48.386;11.738;2023-07-30T04:23:36;3.55;;;3.20;;
48040;SDS011;33815;48.386;11.738;2023-07-30T04:26:01;2.97;;;2.77;;
48040;SDS011;33815;48.386;11.738;2023-07-30T04:28:26;3.17;;;2.77;;
48040;SDS011;33815;48.386;11.738;2023-07-30T04:30:52;7.03;;;2.97;;
48040;SDS011;33815;48.386;11.738;2023-07-30T04:33:17;2.67;;;2.30;;
48040;SDS011;33815;48.386;11.738;2023-07-30T04:35:42;4.40;;;2.80;;
48040;SDS011;33815;48.386;11.738;2023-07-30T04:38:07;3.13;;;2.83;;
48040;SDS011;33815;48.386;11.738;2023-07-30T04:40:33;2.72;;;2.47;;
48040;SDS011;33815;48.386;11.738;2023-07-30T04:42:58;3.10;;;2.80;;
48040;SDS011;33815;48.386;11.738;2023-07-30T04:45:23;3.90;;;3.00;;
48040;SDS011;33815;48.386;11.738;2023-07-30T04:47:48;2.73;;;2.53;;
48040;SDS011;33815;48.386;11.738;2023-07-30T04:50:14;3.93;;;2.90;;
48040;SDS011;33815;48.386;11.738;2023-07-30T04:52:39;2.72;;;2.40;;
48040;SDS011;33815;48.386;11.738;2023-07-30T04:55:05;3.60;;;2.50;;
48040;SDS011;33815;48.386;11.738;2023-07-30T04:57:30;3.85;;;2.80;;
48040;SDS011;33815;48.386;11.738;2023-07-30T04:59:55;2.93;;;2.73;;
48040;SDS011;33815;48.386;11.738;2023-07-30T05:02:21;5.90;;;3.23;;
48040;SDS011;33815;48.386;11.738;2023-07-30T05:04:46;4.13;;;3.45;;
48040;SDS011;33815;48.386;11.738;2023-07-30T05:07:11;3.93;;;3.37;;
48040;SDS011;33815;48.386;11.738;2023-07-30T05:09:37;5.05;;;3.63;;
48040;SDS011;33815;48.386;11.738;2023-07-30T05:12:02;4.80;;;3.40;;
48040;SDS011;33815;48.386;11.738;2023-07-30T05:14:28;4.35;;;3.75;;
48040;SDS011;33815;48.386;11.738;2023-07-30T05:16:53;3.90;;;3.47;;
48040;SDS011;33815;48.386;11.738;2023-07-30T05:19:18;5.93;;;3.20;;
48040;SDS011;33815;48.386;11.738;2023-07-30T05:21:43;4.47;;;3.17;;
48040;SDS011;33815;48.386;11.738;2023-07-30T05:24:09;3.38;;;2.92;;
48040;SDS011;33815;48.386;11.738;2023-07-30T05:26:34;5.32;;;3.00;;
48040;SDS011;33815;48.386;11.738;2023-07-30T05:28:59;4.65;;;2.83;;
48040;SDS011;33815;48.386;11.738;2023-07-30T05:31:25;3.93;;;2.20;;
48040;SDS011;33815;48.386;11.738;2023-07-30T05:33:51;3.28;;;2.97;;
48040;SDS011;33815;48.386;11.738;2023-07-30T05:36:16;3.20;;;2.90;;
48040;SDS011;33815;48.386;11.738;2023-07-30T05:38:41;7.30;;;2.57;;
48040;SDS011;33815;48.386;11.738;2023-07-30T05:41:07;3.03;;;2.70;;
48040;SDS011;33815;48.386;11.738;2023-07-30T05:43:32;2.43;;;2.23;;
48040;SDS011;33815;48.386;11.738;2023-07-30T05:45:57;3.73;;;2.67;;
48040;SDS011;33815;48.386;11.738;2023-07-30T05:48:22;3.07;;;2.40;;
48040;SDS011;33815;48.386;11.738;2023-07-30T05:50:48;3.13;;;2.20;;
48040;SDS011;33815;48.386;11.738;2023-07-30T05:53:14;3.55;;;2.47;;
48040;SDS011;33815;48.386;11.738;2023-07-30T05:55:39;2.30;;;1.98;;
48040;SDS011;33815;48.386;11.738;2023-07-30T05:58:04;4.13;;;2.90;;
48040;SDS011;33815;48.386;11.738;2023-07-30T06:00:30;2.43;;;2.03;;
48040;SDS011;33815;48.386;11.738;2023-07-30T06:02:55;2.40;;;2.20;;
48040;SDS011;33815;48.386;11.738;2023-07-30T06:05:20;1.97;;;1.73;;
48040;SDS011;33815;48.386;11.738;2023-07-30T06:07:45;2.30;;;2.10;;
48040;SDS011;33815;48.386;11.738;2023-07-30T06:10:11;2.40;;;2.20;;
48040;SDS011;33815;48.386;11.738;2023-07-30T06:12:36;3.38;;;2.13;;
48040;SDS011;33815;48.386;11.738;2023-07-30T06:15:01;2.27;;;2.07;;
48040;SDS011;33815;48.386;11.738;2023-07-30T06:17:27;2.20;;;2.08;;
48040;SDS011;33815;48.386;11.738;2023-07-30T06:19:52;3.53;;;2.40;;
48040;SDS011;33815;48.386;11.738;2023-07-30T06:22:17;2.80;;;2.33;;
48040;SDS011;33815;48.386;11.738;2023-07-30T06:24:43;2.63;;;2.10;;
48040;SDS011;33815;48.386;11.738;2023-07-30T06:27:08;5.22;;;2.47;;
48040;SDS011;33815;48.386;11.738;2023-07-30T06:29:34;3.17;;;2.38;;
48040;SDS011;33815;48.386;11.738;2023-07-30T06:32:00;2.45;;;2.10;;
48040;SDS011;33815;48.386;11.738;2023-07-30T06:34:25;2.13;;;1.92;;
48040;SDS011;33815;48.386;11.738;2023-07-30T06:36:51;2.10;;;1.90;;
48040;SDS011;33815;48.386;11.738;2023-07-30T06:39:16;3.60;;;2.43;;
48040;SDS011;33815;48.386;11.738;2023-07-30T06:41:41;3.00;;;2.70;;
48040;SDS011;33815;48.386;11.738;2023-07-30T06:44:07;2.92;;;2.22;;
48040;SDS011;33815;48.386;11.738;2023-07-30T06:46:32;2.30;;;2.10;;
48040;SDS011;33815;48.386;11.738;2023-07-30T06:48:57;4.60;;;2.33;;
48040;SDS011;33815;48.386;11.738;2023-07-30T06:51:26;2.60;;;2.40;;
48040;SDS011;33815;48.386;11.738;2023-07-30T06:53:52;3.22;;;2.03;;
48040;SDS011;33815;48.386;11.738;2023-07-30T06:56:17;3.75;;;2.40;;
48040;SDS011;33815;48.386;11.738;2023-07-30T06:58:43;2.72;;;2.40;;
48040;SDS011;33815;48.386;11.738;2023-07-30T07:01:08;5.13;;;2.23;;
48040;SDS011;33815;48.386;11.738;2023-07-30T07:03:33;2.93;;;2.30;;
48040;SDS011;33815;48.386;11.738;2023-07-30T07:05:59;3.87;;;2.50;;
48040;SDS011;33815;48.386;11.738;2023-07-30T07:08:24;3.87;;;2.37;;
48040;SDS011;33815;48.386;11.738;2023-07-30T07:10:49;3.00;;;2.08;;
48040;SDS011;33815;48.386;11.738;2023-07-30T07:13:15;2.38;;;2.17;;
48040;SDS011;33815;48.386;11.738;2023-07-30T07:15:41;2.15;;;1.90;;
48040;SDS011;33815;48.386;11.738;2023-07-30T07:18:07;2.90;;;2.00;;
48040;SDS011;33815;48.386;11.738;2023-07-30T07:20:32;3.22;;;1.80;;
48040;SDS011;33815;48.386;11.738;2023-07-30T07:22:58;1.65;;;1.55;;
48040;SDS011;33815;48.386;11.738;2023-07-30T07:25:23;3.80;;;1.80;;
48040;SDS011;33815;48.386;11.738;2023-07-30T07:27:49;4.00;;;1.95;;
48040;SDS011;33815;48.386;11.738;2023-07-30T07:30:14;2.58;;;1.77;;
48040;SDS011;33815;48.386;11.738;2023-07-30T07:32:39;1.47;;;1.40;;
48040;SDS011;33815;48.386;11.738;2023-07-30T07:35:05;2.55;;;1.75;;
48040;SDS011;33815;48.386;11.738;2023-07-30T07:37:31;1.80;;;1.65;;
48040;SDS011;33815;48.386;11.738;2023-07-30T07:39:58;1.70;;;1.60;;
48040;SDS011;33815;48.386;11.738;2023-07-30T07:42:24;2.03;;;1.53;;
48040;SDS011;33815;48.386;11.738;2023-07-30T07:44:49;1.70;;;1.60;;
48040;SDS011;33815;48.386;11.738;2023-07-30T07:47:15;2.00;;;1.40;;
48040;SDS011;33815;48.386;11.738;2023-07-30T07:49:40;2.63;;;1.58;;
48040;SDS011;33815;48.386;11.738;2023-07-30T07:52:06;3.95;;;1.42;;
48040;SDS011;33815;48.386;11.738;2023-07-30T07:54:31;1.75;;;1.50;;
48040;SDS011;33815;48.386;11.738;2023-07-30T07:56:57;2.35;;;1.85;;
48040;SDS011;33815;48.386;11.738;2023-07-30T07:59:22;1.70;;;1.60;;
48040;SDS011;33815;48.386;11.738;2023-07-30T08:01:47;2.17;;;1.40;;
48040;SDS011;33815;48.386;11.738;2023-07-30T08:04:13;2.05;;;1.80;;
48040;SDS011;33815;48.386;11.738;2023-07-30T08:06:38;1.80;;;1.37;;
48040;SDS011;33815;48.386;11.738;2023-07-30T08:09:03;3.33;;;1.30;;
48040;SDS011;33815;48.386;11.738;2023-07-30T08:11:28;1.50;;;1.40;;
48040;SDS011;33815;48.386;11.738;2023-07-30T08:13:54;1.33;;;1.23;;
48040;SDS011;33815;48.386;11.738;2023-07-30T08:16:19;1.60;;;1.50;;
48040;SDS011;33815;48.386;11.738;2023-07-30T08:18:44;1.43;;;1.30;;
48040;SDS011;33815;48.386;11.738;2023-07-30T08:21:09;1.90;;;1.67;;
48040;SDS011;33815;48.386;11.738;2023-07-30T08:23:35;4.00;;;1.40;;
48040;SDS011;33815;48.386;11.738;2023-07-30T08:26:00;1.57;;;1.47;;
48040;SDS011;33815;48.386;11.738;2023-07-30T08:28:25;2.30;;;1.60;;
48040;SDS011;33815;48.386;11.738;2023-07-30T08:30:50;1.90;;;1.53;;
48040;SDS011;33815;48.386;11.738;2023-07-30T08:33:16;2.20;;;1.40;;
48040;SDS011;33815;48.386;11.738;2023-07-30T08:35:41;1.58;;;1.48;;
48040;SDS011;33815;48.386;11.738;2023-07-30T08:38:06;4.47;;;1.40;;
48040;SDS011;33815;48.386;11.738;2023-07-30T08:40:32;2.53;;;1.50;;
48040;SDS011;33815;48.386;11.738;2023-07-30T08:42:57;1.00;;;0.90;;
48040;SDS011;33815;48.386;11.738;2023-07-30T08:45:23;1.40;;;1.30;;
48040;SDS011;33815;48.386;11.738;2023-07-30T08:47:48;1.33;;;1.17;;
48040;SDS011;33815;48.386;11.738;2023-07-30T08:50:13;1.40;;;1.30;;
48040;SDS011;33815;48.386;11.738;2023-07-30T08:52:39;1.63;;;1.52;;
48040;SDS011;33815;48.386;11.738;2023-07-30T08:55:05;1.40;;;1.30;;
48040;SDS011;33815;48.386;11.738;2023-07-30T08:57:31;3.03;;;1.20;;
48040;SDS011;33815;48.386;11.738;2023-07-30T09:00:05;3.33;;;0.90;;
48040;SDS011;33815;48.386;11.738;2023-07-30T09:05:12;1.65;;;1.40;;
48040;SDS011;33815;48.386;11.738;2023-07-30T09:07:38;1.13;;;1.08;;
48040;SDS011;33815;48.386;11.738;2023-07-30T09:10:04;2.00;;;1.20;;
48040;SDS011;33815;48.386;11.738;2023-07-30T09:12:29;4.95;;;1.30;;
48040;SDS011;33815;48.386;11.738;2023-07-30T09:14:56;3.45;;;1.20;;
48040;SDS011;33815;48.386;11.738;2023-07-30T09:17:21;1.35;;;1.25;;
48040;SDS011;33815;48.386;11.738;2023-07-30T09:19:47;1.30;;;1.20;;
48040;SDS011;33815;48.386;11.738;2023-07-30T09:22:12;1.30;;;1.17;;
48040;SDS011;33815;48.386;11.738;2023-07-30T09:24:41;1.63;;;0.80;;
48040;SDS011;33815;48.386;11.738;2023-07-30T09:27:08;1.48;;;0.95;;
48040;SDS011;33815;48.386;11.738;2023-07-30T09:29:34;1.87;;;1.67;;
48040;SDS011;33815;48.386;11.738;2023-07-30T09:31:59;1.20;;;1.10;;
48040;SDS011;33815;48.386;11.738;2023-07-30T09:34:24;1.10;;;1.00;;
48040;SDS011;33815;48.386;11.738;2023-07-30T09:36:50;1.73;;;1.60;;
48040;SDS011;33815;48.386;11.738;2023-07-30T09:39:21;1.42;;;1.30;;
48040;SDS011;33815;48.386;11.738;2023-07-30T09:41:51;3.00;;;1.27;;
48040;SDS011;33815;48.386;11.738;2023-07-30T09:49:15;2.60;;;1.27;;
48040;SDS011;33815;48.386;11.738;2023-07-30T09:51:41;1.98;;;1.88;;
48040;SDS011;33815;48.386;11.738;2023-07-30T09:54:14;4.72;;;2.30;;
48040;SDS011;33815;48.386;11.738;2023-07-30T09:56:40;3.13;;;1.77;;
48040;SDS011;33815;48.386;11.738;2023-07-30T09:59:07;2.38;;;1.55;;
48040;SDS011;33815;48.386;11.738;2023-07-30T10:01:38;1.45;;;1.05;;
48040;SDS011;33815;48.386;11.738;2023-07-30T10:04:08;1.52;;;1.17;;
48040;SDS011;33815;48.386;11.738;2023-07-30T10:06:35;1.17;;;0.73;;
48040;SDS011;33815;48.386;11.738;2023-07-30T10:09:04;1.27;;;1.17;;
48040;SDS011;33815;48.386;11.738;2023-07-30T10:11:32;2.78;;;1.20;;
48040;SDS011;33815;48.386;11.738;2023-07-30T10:13:58;2.17;;;1.50;;
48040;SDS011;33815;48.386;11.738;2023-07-30T10:16:26;1.70;;;1.35;;
48040;SDS011;33815;48.386;11.738;2023-07-30T10:18:55;1.75;;;1.35;;
48040;SDS011;33815;48.386;11.738;2023-07-30T10:21:25;1.25;;;1.10;;
48040;SDS011;33815;48.386;11.738;2023-07-30T10:26:32;1.52;;;1.42;;
48040;SDS011;33815;48.386;11.738;2023-07-30T10:29:16;3.53;;;1.48;;
48040;SDS011;33815;48.386;11.738;2023-07-30T10:31:47;2.22;;;1.10;;
48040;SDS011;33815;48.386;11.738;2023-07-30T10:34:18;4.57;;;1.10;;
48040;SDS011;33815;48.386;11.738;2023-07-30T10:36:48;1.55;;;1.42;;
48040;SDS011;33815;48.386;11.738;2023-07-30T10:41:44;1.50;;;1.20;;
48040;SDS011;33815;48.386;11.738;2023-07-30T10:44:24;1.95;;;1.70;;
48040;SDS011;33815;48.386;11.738;2023-07-30T10:46:55;1.60;;;0.90;;
48040;SDS011;33815;48.386;11.738;2023-07-30T10:49:21;1.60;;;1.20;;
48040;SDS011;33815;48.386;11.738;2023-07-30T10:51:47;1.20;;;1.10;;
48040;SDS011;33815;48.386;11.738;2023-07-30T10:54:12;0.90;;;0.90;;
48040;SDS011;33815;48.386;11.738;2023-07-30T10:56:38;1.33;;;1.02;;
48040;SDS011;33815;48.386;11.738;2023-07-30T10:59:05;1.50;;;0.98;;
48040;SDS011;33815;48.386;11.738;2023-07-30T11:01:35;1.30;;;1.20;;
48040;SDS011;33815;48.386;11.738;2023-07-30T11:04:01;1.58;;;1.10;;
48040;SDS011;33815;48.386;11.738;2023-07-30T11:06:31;1.20;;;1.10;;
48040;SDS011;33815;48.386;11.738;2023-07-30T11:08:56;1.33;;;1.23;;
48040;SDS011;33815;48.386;11.738;2023-07-30T11:11:21;1.83;;;1.30;;
48040;SDS011;33815;48.386;11.738;2023-07-30T11:13:49;1.90;;;1.10;;
48040;SDS011;33815;48.386;11.738;2023-07-30T11:16:15;1.77;;;1.30;;
48040;SDS011;33815;48.386;11.738;2023-07-30T11:18:41;1.70;;;1.17;;
48040;SDS011;33815;48.386;11.738;2023-07-30T11:23:37;1.20;;;0.88;;
48040;SDS011;33815;48.386;11.738;2023-07-30T11:26:04;1.25;;;0.80;;
48040;SDS011;33815;48.386;11.738;2023-07-30T11:28:32;0.90;;;0.90;;
48040;SDS011;33815;48.386;11.738;2023-07-30T11:31:01;1.20;;;1.10;;
48040;SDS011;33815;48.386;11.738;2023-07-30T11:33:28;1.10;;;1.00;;
48040;SDS011;33815;48.386;11.738;2023-07-30T11:35:54;1.13;;;0.75;;
48040;SDS011;33815;48.386;11.738;2023-07-30T11:38:21;1.67;;;0.98;;
48040;SDS011;33815;48.386;11.738;2023-07-30T11:40:48;0.70;;;0.70;;
48040;SDS011;33815;48.386;11.738;2023-07-30T11:43:14;1.23;;;1.13;;
48040;SDS011;33815;48.386;11.738;2023-07-30T11:45:40;1.38;;;1.10;;
48040;SDS011;33815;48.386;11.738;2023-07-30T11:48:09;1.57;;;1.07;;
48040;SDS011;33815;48.386;11.738;2023-07-30T11:50:48;1.98;;;1.27;;
48040;SDS011;33815;48.386;11.738;2023-07-30T11:53:17;3.70;;;1.17;;
48040;SDS011;33815;48.386;11.738;2023-07-30T11:55:43;1.30;;;1.20;;
48040;SDS011;33815;48.386;11.738;2023-07-30T11:58:10;1.75;;;1.17;;
48040;SDS011;33815;48.386;11.738;2023-07-30T12:00:37;1.55;;;1.30;;
48040;SDS011;33815;48.386;11.738;2023-07-30T12:03:03;1.63;;;1.08;;
48040;SDS011;33815;48.386;11.738;2023-07-30T12:05:33;1.27;;;1.02;;
48040;SDS011;33815;48.386;11.738;2023-07-30T12:08:02;1.23;;;1.08;;
48040;SDS011;33815;48.386;11.738;2023-07-30T12:10:44;1.42;;;1.05;;
48040;SDS011;33815;48.386;11.738;2023-07-30T12:13:11;0.90;;;0.90;;
48040;SDS011;33815;48.386;11.738;2023-07-30T12:15:53;1.48;;;1.17;;
48040;SDS011;33815;48.386;11.738;2023-07-30T12:18:19;1.17;;;1.08;;
48040;SDS011;33815;48.386;11.738;2023-07-30T12:20:46;1.88;;;1.35;;
48040;SDS011;33815;48.386;11.738;2023-07-30T12:23:12;2.50;;;1.15;;
48040;SDS011;33815;48.386;11.738;2023-07-30T12:25:37;1.50;;;1.02;;
48040;SDS011;33815;48.386;11.738;2023-07-30T12:28:03;1.67;;;1.40;;
48040;SDS011;33815;48.386;11.738;2023-07-30T12:30:28;0.85;;;0.85;;
48040;SDS011;33815;48.386;11.738;2023-07-30T12:32:53;1.85;;;0.75;;
48040;SDS011;33815;48.386;11.738;2023-07-30T12:35:19;1.40;;;0.90;;
48040;SDS011;33815;48.386;11.738;2023-07-30T12:37:44;1.63;;;1.10;;
48040;SDS011;33815;48.386;11.738;2023-07-30T12:40:10;0.97;;;0.90;;
48040;SDS011;33815;48.386;11.738;2023-07-30T12:42:35;1.67;;;1.17;;
48040;SDS011;33815;48.386;11.738;2023-07-30T12:45:01;1.10;;;1.00;;
48040;SDS011;33815;48.386;11.738;2023-07-30T12:47:26;2.40;;;1.10;;
48040;SDS011;33815;48.386;11.738;2023-07-30T12:49:51;1.23;;;1.13;;
48040;SDS011;33815;48.386;11.738;2023-07-30T12:52:16;1.97;;;1.30;;
48040;SDS011;33815;48.386;11.738;2023-07-30T12:54:42;1.17;;;0.97;;
48040;SDS011;33815;48.386;11.738;2023-07-30T12:57:07;3.43;;;1.40;;
48040;SDS011;33815;48.386;11.738;2023-07-30T12:59:32;1.10;;;1.00;;
48040;SDS011;33815;48.386;11.738;2023-07-30T13:01:58;1.15;;;1.05;;
48040;SDS011;33815;48.386;11.738;2023-07-30T13:04:24;1.53;;;1.17;;
48040;SDS011;33815;48.386;11.738;2023-07-30T13:06:52;1.70;;;1.38;;
48040;SDS011;33815;48.386;11.738;2023-07-30T13:09:17;3.65;;;1.20;;
48040;SDS011;33815;48.386;11.738;2023-07-30T13:11:43;2.40;;;1.13;;
48040;SDS011;33815;48.386;11.738;2023-07-30T13:14:08;1.47;;;1.10;;
48040;SDS011;33815;48.386;11.738;2023-07-30T13:16:33;1.03;;;0.93;;
48040;SDS011;33815;48.386;11.738;2023-07-30T13:18:59;1.30;;;1.23;;
48040;SDS011;33815;48.386;11.738;2023-07-30T13:21:24;1.42;;;1.10;;
48040;SDS011;33815;48.386;11.738;2023-07-30T13:23:49;1.10;;;1.07;;
48040;SDS011;33815;48.386;11.738;2023-07-30T13:26:15;1.30;;;1.20;;
48040;SDS011;33815;48.386;11.738;2023-07-30T13:28:41;1.05;;;0.95;;
48040;SDS011;33815;48.386;11.738;2023-07-30T13:31:06;3.80;;;1.10;;
48040;SDS011;33815;48.386;11.738;2023-07-30T13:33:32;1.23;;;0.93;;
48040;SDS011;33815;48.386;11.738;2023-07-30T13:35:57;1.53;;;1.07;;
48040;SDS011;33815;48.386;11.738;2023-07-30T13:38:22;3.60;;;1.47;;
48040;SDS011;33815;48.386;11.738;2023-07-30T13:40:47;1.00;;;1.00;;
48040;SDS011;33815;48.386;11.738;2023-07-30T13:43:12;2.23;;;1.10;;
48040;SDS011;33815;48.386;11.738;2023-07-30T13:45:38;3.33;;;1.33;;
48040;SDS011;33815;48.386;11.738;2023-07-30T13:48:03;3.33;;;1.60;;
48040;SDS011;33815;48.386;11.738;2023-07-30T13:50:29;3.75;;;1.35;;
48040;SDS011;33815;48.386;11.738;2023-07-30T13:52:54;1.90;;;1.30;;
48040;SDS011;33815;48.386;11.738;2023-07-30T13:55:19;1.20;;;1.10;;
48040;SDS011;33815;48.386;11.738;2023-07-30T13:57:45;2.17;;;1.40;;
48040;SDS011;33815;48.386;11.738;2023-07-30T14:00:10;1.38;;;1.20;;
48040;SDS011;33815;48.386;11.738;2023-07-30T14:02:36;1.70;;;1.40;;
48040;SDS011;33815;48.386;11.738;2023-07-30T14:05:02;1.73;;;1.17;;
48040;SDS011;33815;48.386;11.738;2023-07-30T14:07:27;1.15;;;1.05;;
48040;SDS011;33815;48.386;11.738;2023-07-30T14:09:53;1.25;;;1.15;;
48040;SDS011;33815;48.386;11.738;2023-07-30T14:12:18;1.30;;;1.20;;
48040;SDS011;33815;48.386;11.738;2023-07-30T14:14:43;1.10;;;1.00;;
48040;SDS011;33815;48.386;11.738;2023-07-30T14:17:08;1.80;;;1.30;;
48040;SDS011;33815;48.386;11.738;2023-07-30T14:19:34;2.77;;;1.27;;
48040;SDS011;33815;48.386;11.738;2023-07-30T14:21:59;2.13;;;1.23;;
48040;SDS011;33815;48.386;11.738;2023-07-30T14:24:24;1.85;;;1.50;;
48040;SDS011;33815;48.386;11.738;2023-07-30T14:26:50;0.90;;;0.90;;
48040;SDS011;33815;48.386;11.738;2023-07-30T14:29:15;1.40;;;1.30;;
48040;SDS011;33815;48.386;11.738;2023-07-30T14:31:40;1.35;;;1.20;;
48040;SDS011;33815;48.386;11.738;2023-07-30T14:34:06;1.90;;;1.17;;
48040;SDS011;33815;48.386;11.738;2023-07-30T14:36:31;5.97;;;1.10;;
48040;SDS011;33815;48.386;11.738;2023-07-30T14:38:56;2.50;;;0.90;;
48040;SDS011;33815;48.386;11.738;2023-07-30T14:41:21;1.30;;;1.10;;